Granada, CO (81041)

09:43 AM MDT del 18 Settembre 2014 (GMT -0600)
Schenck Farms | Change Station
CLOSE
Current Station
Stazione meteo personale
Location: Holly, CO
Altitudine: 3619 ft
Stazioni meteo nelle vicinanze

Alt. 3619 ft 37.90 °N, 102.11 °W | Updated 6 minutes ago

Sereno
Sereno
68.0 °F
Sembra 68.0 °F
N
4.0
Vento Variabile Vento da NO
Gusts 5.0 mph

Oggi
Massima -- | Minima -- °F
--% Possibilità di precip.
Ieri
Massima -- | Minima -- °F
Precip. -- in
6:33 AM 6:52 PM
Luna calante, 26% visible
Pressione 29.86 in
Visibilità 10.0 miglia
Nuvole Sereno
Punto di rugiada 52 °F
Umidità 56%
Piovosità 0.00 in
Spessore del manto nevoso 0 in , 0 in , 0 in
Raggi UV 2 fuori da 12
Polline 6.60 fuori da 12
Qualità dell'aria Non disponibile.
Flu Activity Non disponibile.
METAR KLAA 181453Z AUTO 27007KT 10SM CLR 19/07 A2998 RMK AO2 SLP109 T01940072 51012

More Conditions Fewer Conditions

Pressione 29.86 in
Visibilità 10.0 miglia
Nuvole Sereno
Punto di rugiada 52 °F
Umidità 56%
Piovosità 0.00 in
Spessore del manto nevoso 0 in , 0 in , 0 in
Raggi UV 2 fuori da 12
Polline 6.60 fuori da 12
Qualità dell'aria Non disponibile.
Flu Activity Non disponibile.
METAR KLAA 181453Z AUTO 27007KT 10SM CLR 19/07 A2998 RMK AO2 SLP109 T01940072 51012

More Conditions Fewer Conditions

10-Day Weather Forecast

Almanac

Astronomia

Sep. 18, 2014 Alba Tramonto
Ora attuale 06:33 MDT 18:52 MDT
Crepuscolo civile 06:07 MDT 19:18 MDT
Crepuscolo nautico 05:36 MDT 19:49 MDT
Crepuscolo astronomico 05:05 MDT 20:20 MDT
Luna 01:31 MDT 15:41 MDT
Estensione della luce visibile 13h 11m
Lunghezza del giorno
12h 18m
Tomorrow will be 2m 25s shorter.
Luna calante, 26% of the Moon is Illuminated
Oggi
Luna calante
Set 24
Nuovo
Ott 1
Primo quarto
Ott 8
Luna piena
Ott 15
Ultimo quarto

Gli estremi di oggi

State Highs State Lows

Community

WunderPhotos

Upload Photos

1,754,388 foto caricate!

Nearby

Profondità neve

Stazione Profondità Altitudine
Michigan Creek 0 in 10600 ft
Bison Lake 0 in 10880 ft
Cascade #2 0 in 8920 ft
Arapaho Ridge 1 in 10960 ft
Independence Pass 188 in 10600 ft

Attività sismica

Città  Distanza Mag. Data & Ora
Non sono state riportate attività sismiche nelle vicinanze.
Minimo Magnitudo Mostrato è 2.5.

Temperature delle acque costiere

Località Temperatura
Nessun dato dalle stazioni

Stazioni meteo nelle vicinanze